Time;durP1;ratioP1;P1;durP2;ratioP2;P2;SDS_P1;SDS_P2;PMS_P1;PMS_P2;Temp;Humidity;BMP_temperature;BMP_pressure;BME280_temperature;BME280_humidity;BME280_pressure;Samples;Min_cycle;Max_cycle;Signal;HPM_P1;HPM_P2
2021/01/08 00:00:52;;;;;;;14.53;10.80;;;5.70;93.30;;;;;;5069994;28;20725;-51
2021/01/08 00:03:19;;;;;;;17.83;10.90;;;5.70;93.20;;;;;;5070444;28;20760;-50
2021/01/08 00:05:46;;;;;;;21.87;11.03;;;5.60;93.10;;;;;;5070361;28;20650;-50
2021/01/08 00:08:12;;;;;;;14.80;9.87;;;5.60;93.10;;;;;;5070006;28;20892;-51
2021/01/08 00:10:40;;;;;;;15.90;10.77;;;5.60;92.90;;;;;;5069849;28;20622;-50
2021/01/08 00:13:07;;;;;;;12.97;10.70;;;5.60;92.90;;;;;;5068964;28;20625;-49
2021/01/08 00:15:33;;;;;;;13.17;9.90;;;5.50;92.90;;;;;;5069869;28;20726;-50
2021/01/08 00:18:00;;;;;;;16.20;10.30;;;5.40;93.10;;;;;;5069724;28;20680;-48
2021/01/08 00:20:27;;;;;;;16.93;10.20;;;5.40;93.10;;;;;;5068644;28;20696;-50
2021/01/08 00:22:54;;;;;;;16.83;10.00;;;5.30;93.10;;;;;;5070104;28;20651;-50
2021/01/08 00:25:21;;;;;;;22.47;11.40;;;5.30;93.20;;;;;;5063988;28;20756;-50
2021/01/08 00:27:48;;;;;;;9.83;8.20;;;5.30;93.20;;;;;;5069708;28;20657;-50
2021/01/08 00:30:16;;;;;;;12.77;10.27;;;5.30;93.20;;;;;;5068302;28;20632;-49
2021/01/08 00:32:42;;;;;;;14.67;10.70;;;5.30;93.10;;;;;;5070245;28;20686;-50
2021/01/08 00:35:10;;;;;;;15.17;8.70;;;5.30;93.00;;;;;;5070810;28;20671;-50
2021/01/08 00:37:37;;;;;;;14.20;10.63;;;5.40;93.10;;;;;;5071189;28;20653;-50
2021/01/08 00:40:04;;;;;;;13.57;8.80;;;5.40;93.00;;;;;;5070274;28;20958;-49
2021/01/08 00:42:33;;;;;;;14.40;12.10;;;5.40;92.80;;;;;;5070326;28;20625;-50
2021/01/08 00:45:01;;;;;;;12.70;8.30;;;5.40;92.70;;;;;;5071035;28;20665;-50
2021/01/08 00:47:28;;;;;;;14.33;8.87;;;5.40;92.70;;;;;;5072262;28;21283;-50
2021/01/08 00:49:54;;;;;;;11.70;9.90;;;5.40;92.60;;;;;;5071795;28;20625;-50
2021/01/08 00:52:21;;;;;;;14.00;11.27;;;5.30;92.90;;;;;;5066169;28;20629;-50
2021/01/08 00:54:49;;;;;;;12.60;10.00;;;5.40;92.70;;;;;;5070344;28;20668;-50
2021/01/08 00:57:16;;;;;;;13.43;8.90;;;5.40;92.50;;;;;;5070877;28;20993;-49
2021/01/08 00:59:43;;;;;;;11.63;9.73;;;5.40;92.50;;;;;;5070655;28;21025;-50
2021/01/08 01:02:11;;;;;;;20.23;9.00;;;5.40;92.30;;;;;;5064716;28;20687;-48
2021/01/08 01:04:37;;;;;;;15.37;10.90;;;5.30;92.40;;;;;;5070024;28;20673;-50
2021/01/08 01:07:04;;;;;;;15.60;12.07;;;5.40;92.50;;;;;;5070556;28;20625;-50
2021/01/08 01:09:31;;;;;;;13.00;9.80;;;5.40;92.60;;;;;;5065268;28;20629;-49
2021/01/08 01:11:57;;;;;;;12.90;9.73;;;5.40;92.40;;;;;;5065340;28;20698;-51
2021/01/08 01:14:24;;;;;;;11.83;7.43;;;5.40;92.30;;;;;;5065737;28;20713;-49
2021/01/08 01:16:51;;;;;;;10.63;7.43;;;5.40;92.20;;;;;;5069225;28;20629;-50
2021/01/08 01:19:19;;;;;;;12.10;9.37;;;5.40;92.20;;;;;;5068453;28;20689;-50
2021/01/08 01:21:45;;;;;;;14.83;11.07;;;5.40;92.20;;;;;;5068960;28;20629;-50
2021/01/08 01:24:12;;;;;;;11.97;9.83;;;5.30;92.20;;;;;;5071114;28;20661;-50
2021/01/08 01:26:39;;;;;;;15.60;11.27;;;5.30;92.30;;;;;;5073888;28;20636;-51
2021/01/08 01:29:05;;;;;;;12.50;9.57;;;5.30;92.60;;;;;;5074033;28;20644;-50
2021/01/08 01:31:32;;;;;;;11.97;7.93;;;5.40;92.60;;;;;;5073356;28;20621;-50
2021/01/08 01:33:59;;;;;;;13.67;11.30;;;5.40;92.40;;;;;;5073758;28;21346;-49
2021/01/08 01:36:27;;;;;;;16.00;10.33;;;5.40;92.10;;;;;;5073733;28;20617;-51
2021/01/08 01:38:53;;;;;;;13.20;9.07;;;5.50;92.00;;;;;;5073028;28;20657;-50
2021/01/08 01:41:20;;;;;;;10.40;8.00;;;5.50;91.70;;;;;;5074191;28;20694;-50
2021/01/08 01:43:47;;;;;;;12.43;9.70;;;5.40;91.70;;;;;;5072839;28;20734;-50
2021/01/08 01:46:17;;;;;;;13.87;9.83;;;5.40;91.60;;;;;;5073525;28;21176;-51
2021/01/08 01:48:44;;;;;;;11.60;9.47;;;5.40;91.70;;;;;;5073418;28;20613;-50
2021/01/08 01:51:11;;;;;;;10.13;8.60;;;5.40;91.80;;;;;;5073069;28;20625;-50
2021/01/08 01:53:38;;;;;;;14.70;9.60;;;5.40;92.00;;;;;;5072817;28;20716;-49
2021/01/08 01:56:05;;;;;;;10.03;8.43;;;5.40;91.90;;;;;;5073237;28;20629;-51
2021/01/08 01:58:32;;;;;;;8.20;7.00;;;5.30;91.80;;;;;;5073473;28;20703;-50
2021/01/08 02:00:59;;;;;;;11.60;7.87;;;5.30;92.00;;;;;;5073673;28;20654;-50
2021/01/08 02:03:28;;;;;;;10.23;8.27;;;5.30;92.00;;;;;;5073360;28;20671;-51
2021/01/08 02:05:57;;;;;;;12.83;9.50;;;5.30;92.10;;;;;;5073406;28;20745;-50
2021/01/08 02:08:24;;;;;;;9.43;8.53;;;5.40;92.00;;;;;;5073278;28;21164;-50
2021/01/08 02:10:55;;;;;;;8.90;7.97;;;5.40;91.90;;;;;;5073259;28;20678;-50
2021/01/08 02:13:23;;;;;;;11.23;7.70;;;5.40;91.60;;;;;;5072831;28;21077;-50
2021/01/08 02:15:50;;;;;;;10.27;8.30;;;5.30;91.70;;;;;;5073336;28;20687;-51
2021/01/08 02:18:17;;;;;;;8.87;7.30;;;5.20;91.90;;;;;;5072658;28;20806;-50
2021/01/08 02:20:44;;;;;;;11.73;8.93;;;5.20;92.10;;;;;;5072982;28;20678;-50
2021/01/08 02:23:14;;;;;;;9.93;8.67;;;5.30;92.20;;;;;;5072802;28;20656;-50
2021/01/08 02:25:41;;;;;;;11.33;9.00;;;5.30;92.00;;;;;;5073112;28;20692;-50
2021/01/08 02:28:22;;;;;;;12.33;8.87;;;5.30;92.10;;;;;;5072141;28;20618;-49
2021/01/08 02:30:49;;;;;;;11.00;8.50;;;5.30;92.10;;;;;;5070815;28;20628;-50
2021/01/08 02:33:16;;;;;;;8.83;7.23;;;5.30;92.10;;;;;;5072502;28;20636;-49
2021/01/08 02:35:43;;;;;;;8.73;6.90;;;5.40;92.30;;;;;;5070864;28;20699;-50
2021/01/08 02:38:11;;;;;;;12.17;9.20;;;5.30;92.20;;;;;;5072442;28;20665;-50
2021/01/08 02:40:38;;;;;;;11.13;8.27;;;5.30;92.50;;;;;;5072436;28;20646;-50
2021/01/08 02:43:06;;;;;;;13.27;10.80;;;5.20;92.60;;;;;;5071472;28;20622;-50
2021/01/08 02:45:33;;;;;;;15.60;9.57;;;5.20;92.90;;;;;;5072823;28;20726;-50
2021/01/08 02:48:00;;;;;;;16.17;11.17;;;5.20;93.30;;;;;;5071654;28;21110;-50
2021/01/08 02:50:26;;;;;;;12.93;10.00;;;5.20;93.50;;;;;;5072278;28;20682;-49
2021/01/08 02:52:56;;;;;;;14.03;9.80;;;5.20;93.40;;;;;;5065927;28;20629;-50
2021/01/08 02:55:25;;;;;;;11.10;8.60;;;5.20;93.30;;;;;;5071206;28;20757;-50
2021/01/08 02:57:52;;;;;;;13.50;10.07;;;5.30;93.30;;;;;;5071800;28;21172;-50
2021/01/08 03:00:20;;;;;;;16.40;11.23;;;5.30;93.30;;;;;;5072300;28;20625;-50
2021/01/08 03:02:46;;;;;;;13.40;11.17;;;5.20;93.40;;;;;;5071496;28;20637;-50
2021/01/08 03:05:13;;;;;;;14.53;11.43;;;5.20;93.50;;;;;;5071331;28;20696;-50
2021/01/08 03:07:41;;;;;;;13.83;11.50;;;5.20;93.60;;;;;;5071979;28;20762;-50
2021/01/08 03:10:08;;;;;;;15.13;12.83;;;5.20;93.70;;;;;;5073318;28;20633;-49
2021/01/08 03:12:35;;;;;;;17.77;12.77;;;5.10;93.90;;;;;;5072842;28;20688;-51
2021/01/08 03:15:03;;;;;;;19.13;12.23;;;5.10;94.10;;;;;;5097363;22;21172;-58
2021/01/08 03:17:30;;;;;;;14.03;9.97;;;5.10;94.20;;;;;;5093248;28;21236;-55
2021/01/08 03:19:57;;;;;;;16.93;13.13;;;5.10;94.20;;;;;;5093002;28;21049;-56
2021/01/08 03:22:24;;;;;;;15.87;9.33;;;5.10;94.30;;;;;;5074316;28;20629;-57
2021/01/08 03:24:50;;;;;;;15.03;10.43;;;5.10;94.30;;;;;;5072595;28;21218;-56
2021/01/08 03:27:17;;;;;;;18.57;12.17;;;5.10;94.30;;;;;;5072996;28;20617;-54
2021/01/08 03:29:44;;;;;;;14.43;12.07;;;5.00;94.30;;;;;;5072592;28;21048;-55
2021/01/08 03:32:11;;;;;;;17.47;12.23;;;5.00;94.50;;;;;;5072512;28;20645;-55
2021/01/08 03:34:38;;;;;;;13.40;11.93;;;4.90;94.70;;;;;;5072507;28;20986;-56
2021/01/08 03:37:05;;;;;;;15.60;11.63;;;4.90;94.70;;;;;;5072185;28;20331;-57
2021/01/08 03:39:32;;;;;;;18.10;14.60;;;4.90;94.80;;;;;;5066482;28;20661;-57
2021/01/08 03:41:58;;;;;;;12.93;9.03;;;4.90;94.80;;;;;;5072115;28;20660;-58
2021/01/08 03:44:25;;;;;;;17.87;13.13;;;4.90;94.90;;;;;;5072210;28;20671;-57
2021/01/08 03:46:52;;;;;;;16.33;13.27;;;4.90;94.80;;;;;;5068597;28;20665;-57
2021/01/08 03:49:19;;;;;;;18.80;12.23;;;5.00;94.80;;;;;;5068010;28;20613;-57
2021/01/08 03:51:46;;;;;;;16.03;10.70;;;5.10;94.60;;;;;;5070348;28;20613;-57
2021/01/08 03:54:13;;;;;;;15.30;12.63;;;5.10;94.50;;;;;;5071593;28;20637;-58
2021/01/08 03:56:40;;;;;;;13.30;11.43;;;5.10;94.40;;;;;;5071188;28;20653;-56
2021/01/08 03:59:07;;;;;;;15.17;11.00;;;5.10;94.40;;;;;;5053526;28;20686;-57
2021/01/08 04:01:33;;;;;;;15.13;12.00;;;5.00;94.40;;;;;;5071727;28;20625;-57
2021/01/08 04:04:00;;;;;;;15.27;11.60;;;5.10;94.50;;;;;;5071911;28;20710;-57
2021/01/08 04:06:27;;;;;;;14.07;10.83;;;5.00;94.40;;;;;;5071533;28;20652;-57
2021/01/08 04:08:55;;;;;;;15.33;12.50;;;5.00;94.60;;;;;;5071886;28;20624;-57
2021/01/08 04:11:22;;;;;;;16.57;12.47;;;5.00;94.60;;;;;;5071669;28;20698;-57
2021/01/08 04:13:48;;;;;;;15.80;12.60;;;5.00;94.60;;;;;;5071636;28;21249;-57
2021/01/08 04:16:15;;;;;;;16.20;12.30;;;5.00;94.50;;;;;;5071189;28;20661;-57
2021/01/08 04:18:42;;;;;;;18.43;12.97;;;5.10;94.60;;;;;;5071699;28;20653;-57
2021/01/08 04:21:09;;;;;;;14.60;12.40;;;5.10;94.50;;;;;;5071270;28;20632;-57
2021/01/08 04:23:35;;;;;;;16.33;12.43;;;5.10;94.40;;;;;;5071595;28;20675;-56
2021/01/08 04:26:03;;;;;;;17.67;11.80;;;5.10;94.40;;;;;;5071402;28;20710;-57
2021/01/08 04:28:30;;;;;;;12.40;10.70;;;5.10;94.50;;;;;;5071509;28;20626;-58
2021/01/08 04:30:57;;;;;;;13.67;10.80;;;5.10;94.50;;;;;;5071176;28;20695;-58
2021/01/08 04:33:23;;;;;;;14.07;11.40;;;5.10;94.40;;;;;;5071171;28;20625;-58
2021/01/08 04:35:53;;;;;;;14.20;12.47;;;5.10;94.50;;;;;;5071470;28;20702;-57
2021/01/08 04:38:19;;;;;;;18.00;10.03;;;5.00;94.60;;;;;;5071076;28;20630;-57
2021/01/08 04:40:46;;;;;;;11.57;9.47;;;5.10;94.70;;;;;;5071718;28;20770;-58
2021/01/08 04:43:14;;;;;;;13.67;10.00;;;5.00;94.60;;;;;;5070894;28;20703;-58
2021/01/08 04:45:40;;;;;;;15.80;11.40;;;5.00;94.60;;;;;;5071129;28;20649;-58
2021/01/08 04:48:07;;;;;;;16.90;11.83;;;5.00;94.70;;;;;;5070701;28;20762;-58
2021/01/08 04:50:34;;;;;;;13.03;10.20;;;5.00;94.90;;;;;;5071049;28;20711;-57
2021/01/08 04:53:01;;;;;;;18.33;12.80;;;5.00;94.90;;;;;;5071422;28;20670;-58
2021/01/08 04:55:28;;;;;;;17.23;11.93;;;5.00;94.80;;;;;;5070408;28;20653;-58
2021/01/08 04:57:54;;;;;;;8.43;6.73;;;5.00;94.70;;;;;;5070446;28;20667;-58
2021/01/08 05:00:22;;;;;;;16.13;8.37;;;5.00;94.80;;;;;;5070128;28;20657;-58
2021/01/08 05:02:51;;;;;;;10.63;9.13;;;4.90;94.80;;;;;;5070557;28;20992;-57
2021/01/08 05:05:17;;;;;;;12.57;10.00;;;4.90;95.00;;;;;;5070655;28;21215;-57
2021/01/08 05:07:45;;;;;;;12.80;9.57;;;4.80;95.00;;;;;;5069148;28;20682;-57
2021/01/08 05:10:12;;;;;;;12.63;11.07;;;4.90;95.00;;;;;;5064813;28;20887;-57
2021/01/08 05:12:39;;;;;;;15.43;11.90;;;4.80;95.00;;;;;;5050890;28;20637;-58
2021/01/08 05:15:09;;;;;;;11.82;9.65;;;4.80;95.20;;;;;;5051087;28;20719;-57
2021/01/08 05:17:37;;;;;;;14.13;11.77;;;4.80;95.30;;;;;;5051027;28;20208;-56
2021/01/08 05:20:04;;;;;;;12.80;9.27;;;4.80;95.30;;;;;;5060795;28;20657;-58
2021/01/08 05:22:31;;;;;;;9.37;7.50;;;4.80;95.40;;;;;;5070491;28;21069;-57
2021/01/08 05:25:02;;;;;;;15.10;12.10;;;4.80;95.50;;;;;;5070846;28;20661;-57
2021/01/08 05:27:29;;;;;;;13.43;11.10;;;4.80;95.50;;;;;;5070910;28;21030;-57
2021/01/08 05:29:55;;;;;;;14.77;12.07;;;4.80;95.50;;;;;;5070361;28;20629;-58
2021/01/08 05:32:23;;;;;;;11.10;8.93;;;4.80;95.50;;;;;;5070842;28;20629;-57
2021/01/08 05:34:51;;;;;;;17.07;13.07;;;4.70;95.50;;;;;;5070422;28;20629;-56
2021/01/08 05:37:18;;;;;;;17.03;12.83;;;4.70;95.70;;;;;;5070623;28;20625;-57
2021/01/08 05:39:45;;;;;;;14.83;13.20;;;4.70;95.70;;;;;;5070773;28;20661;-57
2021/01/08 05:42:12;;;;;;;13.90;10.83;;;4.70;95.80;;;;;;5070957;28;20637;-57
2021/01/08 05:44:39;;;;;;;16.27;12.10;;;4.70;95.90;;;;;;5070523;28;20636;-57
2021/01/08 05:47:06;;;;;;;15.87;11.93;;;4.60;95.90;;;;;;5070230;28;20633;-57
2021/01/08 05:49:33;;;;;;;15.47;13.83;;;4.60;96.00;;;;;;5071232;28;20647;-57
2021/01/08 05:52:01;;;;;;;14.37;10.80;;;4.60;96.10;;;;;;5070564;28;20672;-58
2021/01/08 05:54:28;;;;;;;18.47;14.10;;;4.70;96.20;;;;;;5067846;28;20633;-55
2021/01/08 05:56:54;;;;;;;17.20;13.27;;;4.70;96.20;;;;;;5053362;28;20711;-55
2021/01/08 05:59:25;;;;;;;14.80;11.60;;;4.70;96.10;;;;;;5051605;28;20658;-57
2021/01/08 06:01:52;;;;;;;12.27;9.57;;;4.70;96.20;;;;;;5050506;28;20630;-57
2021/01/08 06:04:19;;;;;;;10.63;7.60;;;4.70;96.20;;;;;;5051196;28;20865;-56
2021/01/08 06:06:45;;;;;;;13.30;9.63;;;4.70;96.20;;;;;;5032632;28;20669;-54
2021/01/08 06:09:15;;;;;;;9.73;8.73;;;4.60;96.10;;;;;;5050927;28;21178;-56
2021/01/08 06:11:43;;;;;;;13.13;10.47;;;4.60;96.20;;;;;;5054505;28;20664;-56
2021/01/08 06:14:11;;;;;;;13.83;10.30;;;4.60;96.30;;;;;;5053735;28;20707;-58
2021/01/08 06:16:39;;;;;;;14.93;11.60;;;4.60;96.30;;;;;;5053601;28;20739;-58
2021/01/08 06:19:06;;;;;;;12.00;10.83;;;4.60;96.30;;;;;;5053977;28;20700;-56
2021/01/08 06:21:36;;;;;;;15.40;11.87;;;4.60;96.30;;;;;;5053938;28;20679;-56
2021/01/08 06:24:03;;;;;;;14.10;12.10;;;4.60;96.40;;;;;;5061516;28;21176;-57
2021/01/08 06:26:31;;;;;;;16.40;11.70;;;4.60;96.40;;;;;;5073822;28;21030;-55
2021/01/08 06:29:02;;;;;;;15.10;11.43;;;4.60;96.40;;;;;;5073611;28;20621;-55
2021/01/08 06:31:35;;;;;;;14.30;10.13;;;4.70;96.40;;;;;;5073939;28;20625;-56
2021/01/08 06:34:02;;;;;;;12.97;10.80;;;4.70;96.40;;;;;;5073595;28;20633;-56
2021/01/08 06:36:30;;;;;;;14.43;11.37;;;4.70;96.20;;;;;;5073349;28;20735;-57
2021/01/08 06:38:57;;;;;;;14.50;11.70;;;4.60;96.30;;;;;;5073720;28;21204;-57
2021/01/08 06:41:24;;;;;;;14.20;9.50;;;4.70;96.40;;;;;;5073623;28;21234;-56
2021/01/08 06:43:54;;;;;;;9.73;8.30;;;4.70;96.30;;;;;;5073459;28;20625;-57
2021/01/08 06:46:28;;;;;;;11.00;8.67;;;4.60;96.60;;;;;;5073032;28;20710;-55
2021/01/08 06:48:55;;;;;;;14.83;9.67;;;4.60;96.50;;;;;;5073492;28;20613;-56
2021/01/08 06:51:27;;;;;;;15.30;11.97;;;4.50;96.50;;;;;;5055191;28;20632;-55
2021/01/08 06:53:56;;;;;;;15.03;11.87;;;4.50;96.60;;;;;;5073386;28;20678;-55
2021/01/08 06:56:28;;;;;;;15.67;12.00;;;4.50;96.70;;;;;;5072725;28;20665;-55
2021/01/08 06:58:56;;;;;;;11.80;8.60;;;4.60;96.70;;;;;;5074036;28;20661;-57
2021/01/08 07:01:26;;;;;;;16.97;12.30;;;4.60;96.70;;;;;;5073047;28;20624;-56
2021/01/08 07:03:53;;;;;;;13.97;11.17;;;4.60;96.70;;;;;;5073393;28;20682;-56
2021/01/08 07:06:20;;;;;;;18.50;11.37;;;4.60;96.70;;;;;;5072688;28;20664;-55
2021/01/08 07:08:46;;;;;;;12.63;11.00;;;4.60;96.70;;;;;;5072923;28;20678;-57
2021/01/08 07:11:23;;;;;;;14.90;11.60;;;4.60;96.90;;;;;;5073138;28;20641;-56
2021/01/08 07:13:50;;;;;;;16.50;12.00;;;4.50;96.80;;;;;;5073071;28;20675;-56
2021/01/08 07:16:20;;;;;;;13.03;10.20;;;4.50;96.80;;;;;;5072621;28;21022;-55
2021/01/08 07:18:47;;;;;;;12.93;10.30;;;4.40;96.90;;;;;;5072837;28;20749;-56
2021/01/08 07:21:23;;;;;;;14.43;10.50;;;4.50;97.10;;;;;;5072085;28;20702;-56
2021/01/08 07:23:51;;;;;;;12.07;10.30;;;4.50;97.30;;;;;;5072459;28;21023;-56
2021/01/08 07:26:18;;;;;;;16.97;12.07;;;4.50;97.40;;;;;;5073164;28;20652;-55
2021/01/08 07:28:50;;;;;;;12.43;10.90;;;4.50;97.50;;;;;;5072183;28;21161;-56
2021/01/08 07:31:18;;;;;;;12.60;10.07;;;4.60;97.60;;;;;;5072807;28;20617;-53
2021/01/08 07:33:48;;;;;;;17.30;11.80;;;4.60;97.40;;;;;;5067612;28;21142;-54
2021/01/08 07:36:23;;;;;;;16.33;13.80;;;5.00;98.10;;;;;;5072038;28;20653;-55
2021/01/08 07:38:50;;;;;;;12.27;9.90;;;5.60;98.60;;;;;;5070946;28;20630;-54
2021/01/08 07:41:36;;;;;;;11.33;9.20;;;6.10;97.70;;;;;;5072031;28;20630;-54
2021/01/08 07:44:04;;;;;;;10.27;9.20;;;6.30;95.60;;;;;;5072279;28;20633;-56
2021/01/08 07:46:31;;;;;;;12.57;11.00;;;6.20;94.50;;;;;;5071933;28;20665;-54
2021/01/08 07:48:59;;;;;;;10.13;8.73;;;6.00;94.20;;;;;;5072135;28;20692;-55
2021/01/08 07:51:44;;;;;;;10.90;9.77;;;5.70;94.20;;;;;;5071444;28;20617;-54
2021/01/08 07:54:11;;;;;;;11.47;9.57;;;5.50;94.70;;;;;;5072287;28;20646;-54
2021/01/08 07:56:53;;;;;;;13.30;8.57;;;5.40;94.90;;;;;;5060555;28;20720;-55
2021/01/08 07:59:23;;;;;;;10.47;7.60;;;5.30;95.00;;;;;;5051664;28;20662;-54
2021/01/08 08:01:50;;;;;;;15.40;7.90;;;5.00;95.20;;;;;;5051160;28;20684;-56
2021/01/08 08:04:19;;;;;;;13.77;9.70;;;5.00;95.70;;;;;;5052121;28;20618;-56
2021/01/08 08:06:46;;;;;;;11.63;9.10;;;5.00;95.90;;;;;;5051403;28;20650;-55
2021/01/08 08:09:14;;;;;;;9.10;7.30;;;5.00;95.90;;;;;;5051905;28;20621;-56
2021/01/08 08:11:40;;;;;;;11.07;8.50;;;4.90;95.80;;;;;;5051870;28;20629;-56
2021/01/08 08:14:10;;;;;;;9.03;7.90;;;4.90;95.90;;;;;;5050952;28;21029;-56
2021/01/08 08:16:38;;;;;;;11.50;8.23;;;4.80;95.80;;;;;;5051777;28;20646;-57
2021/01/08 08:19:05;;;;;;;12.60;9.00;;;4.80;96.10;;;;;;5070392;28;20676;-56
2021/01/08 08:21:33;;;;;;;11.87;9.43;;;4.80;96.10;;;;;;5071397;28;20633;-55
2021/01/08 08:24:01;;;;;;;12.70;10.57;;;4.90;96.20;;;;;;5070752;28;20633;-56
2021/01/08 08:26:28;;;;;;;10.70;9.60;;;5.00;96.10;;;;;;5071267;28;21212;-57
2021/01/08 08:28:59;;;;;;;8.23;7.30;;;5.10;95.90;;;;;;5070896;28;20981;-56
2021/01/08 08:31:27;;;;;;;10.10;9.07;;;5.10;95.60;;;;;;5070897;28;20633;-57
2021/01/08 08:33:54;;;;;;;9.93;7.60;;;5.20;95.90;;;;;;5071070;28;20625;-57
2021/01/08 08:36:21;;;;;;;10.30;8.80;;;5.20;95.40;;;;;;5070841;28;20689;-57
2021/01/08 08:38:59;;;;;;;11.87;9.37;;;5.20;95.40;;;;;;5071083;28;20682;-58
2021/01/08 08:41:26;;;;;;;10.13;9.13;;;5.30;95.40;;;;;;5070307;28;20667;-58
2021/01/08 08:44:00;;;;;;;10.20;7.57;;;5.30;95.30;;;;;;5070503;28;21184;-57
2021/01/08 08:46:48;;;;;;;11.97;7.93;;;5.30;95.30;;;;;;5070326;28;20654;-57
2021/01/08 08:49:15;;;;;;;7.97;6.90;;;5.30;95.30;;;;;;5070059;28;20919;-58
2021/01/08 08:51:46;;;;;;;10.10;7.53;;;5.40;95.30;;;;;;5070512;28;20645;-58
2021/01/08 08:54:14;;;;;;;8.93;7.00;;;5.30;95.20;;;;;;5070547;28;20658;-56
2021/01/08 08:57:01;;;;;;;7.53;6.10;;;5.40;95.20;;;;;;5069808;28;20660;-55
2021/01/08 08:59:41;;;;;;;8.87;7.97;;;5.30;94.70;;;;;;5070376;28;20706;-57
2021/01/08 09:02:08;;;;;;;6.67;5.87;;;5.20;95.00;;;;;;5070268;28;20675;-54
2021/01/08 09:04:35;;;;;;;9.37;5.77;;;5.20;95.20;;;;;;5070567;28;20633;-56
2021/01/08 09:07:04;;;;;;;8.50;7.00;;;5.30;95.40;;;;;;5071150;28;21179;-58
2021/01/08 09:12:27;;;;;;;3.97;3.57;;;5.30;95.10;;;;;;5051800;28;20618;-57
2021/01/08 09:14:56;;;;;;;8.50;7.17;;;5.30;95.00;;;;;;5069708;28;20990;-58
2021/01/08 09:17:23;;;;;;;8.80;6.83;;;5.40;95.00;;;;;;5095499;22;20667;-49
2021/01/08 09:19:53;;;;;;;7.90;7.10;;;5.40;94.80;;;;;;5109477;28;21182;-48
2021/01/08 09:22:19;;;;;;;12.40;7.80;;;5.30;94.60;;;;;;5109510;28;21250;-48
2021/01/08 09:24:48;;;;;;;8.43;7.00;;;5.40;94.70;;;;;;5108426;28;20627;-48
2021/01/08 09:27:15;;;;;;;10.10;7.57;;;5.40;95.10;;;;;;5089404;28;20733;-51
2021/01/08 09:29:42;;;;;;;10.40;7.47;;;5.40;94.80;;;;;;5088486;28;20621;-48
2021/01/08 09:32:09;;;;;;;8.73;6.73;;;5.40;94.70;;;;;;5089450;28;20628;-49
2021/01/08 09:34:37;;;;;;;11.67;8.60;;;5.40;94.70;;;;;;5088713;28;20800;-49
2021/01/08 09:37:14;;;;;;;10.33;8.13;;;5.50;94.70;;;;;;5089508;28;20714;-49
2021/01/08 09:39:41;;;;;;;9.00;8.00;;;5.50;94.60;;;;;;5089458;28;20661;-49
2021/01/08 09:42:10;;;;;;;9.57;8.37;;;5.50;94.50;;;;;;5088517;28;20628;-50
2021/01/08 09:44:37;;;;;;;10.57;8.27;;;5.40;94.60;;;;;;5089504;28;20627;-50
2021/01/08 09:47:05;;;;;;;9.73;8.73;;;5.50;94.70;;;;;;5092238;28;20704;-50
2021/01/08 09:49:39;;;;;;;9.07;7.77;;;5.50;94.70;;;;;;5093357;28;20621;-50
2021/01/08 09:52:05;;;;;;;9.10;8.17;;;5.60;94.70;;;;;;5093300;28;21167;-50
2021/01/08 09:54:40;;;;;;;9.27;7.63;;;5.60;94.50;;;;;;5092562;28;20636;-49
2021/01/08 09:57:06;;;;;;;10.20;8.40;;;5.60;94.50;;;;;;5083680;28;21050;-49
2021/01/08 09:59:34;;;;;;;12.20;8.97;;;5.60;94.60;;;;;;5072448;28;20628;-51
2021/01/08 10:02:05;;;;;;;11.33;9.77;;;5.60;94.60;;;;;;5072674;28;21208;-49
2021/01/08 10:04:32;;;;;;;13.00;8.60;;;5.60;94.60;;;;;;5072050;28;20624;-49
2021/01/08 10:07:00;;;;;;;10.70;8.53;;;5.70;94.70;;;;;;5071795;28;20725;-49
2021/01/08 10:09:27;;;;;;;11.27;8.83;;;5.70;94.50;;;;;;5071897;28;20694;-50
2021/01/08 10:11:58;;;;;;;10.93;8.30;;;5.80;94.50;;;;;;5072182;28;21029;-49
2021/01/08 10:14:32;;;;;;;7.43;6.40;;;5.90;94.50;;;;;;5071783;28;21037;-50
2021/01/08 10:17:09;;;;;;;10.10;8.10;;;5.70;94.10;;;;;;5072200;28;20764;-50
2021/01/08 10:19:36;;;;;;;10.00;8.40;;;5.80;94.40;;;;;;5071592;28;21180;-50
2021/01/08 10:22:03;;;;;;;9.00;7.33;;;5.80;94.40;;;;;;5072792;28;20614;-50
2021/01/08 10:24:30;;;;;;;9.50;7.90;;;5.90;94.40;;;;;;5071751;28;20609;-50
2021/01/08 10:26:57;;;;;;;10.27;8.20;;;5.90;94.10;;;;;;5090389;28;21249;-50
2021/01/08 10:29:38;;;;;;;8.00;6.80;;;5.80;94.00;;;;;;5092075;28;20674;-49
2021/01/08 10:32:06;;;;;;;11.50;8.63;;;5.80;94.20;;;;;;5091889;28;20662;-50
2021/01/08 10:34:37;;;;;;;11.63;7.67;;;5.90;94.20;;;;;;5091889;28;20625;-49
2021/01/08 10:37:04;;;;;;;7.80;7.00;;;5.80;94.00;;;;;;5091324;28;20652;-50
2021/01/08 10:39:31;;;;;;;7.90;6.90;;;5.80;94.00;;;;;;5090760;28;21213;-49
2021/01/08 10:41:58;;;;;;;9.73;7.60;;;5.70;94.00;;;;;;5077745;28;20987;-50
2021/01/08 10:44:25;;;;;;;8.50;7.53;;;5.70;94.20;;;;;;5083290;28;20724;-48
2021/01/08 10:46:51;;;;;;;9.17;8.23;;;5.70;94.40;;;;;;5071289;28;20664;-51
2021/01/08 10:49:18;;;;;;;9.23;7.30;;;5.70;94.30;;;;;;5085928;28;20623;-48
2021/01/08 10:51:46;;;;;;;8.10;7.30;;;5.70;94.30;;;;;;5091519;28;20612;-49
2021/01/08 10:54:17;;;;;;;8.13;7.33;;;5.60;94.30;;;;;;5091774;28;20694;-50
2021/01/08 10:56:44;;;;;;;10.87;8.90;;;5.60;94.50;;;;;;5090089;28;20713;-49
2021/01/08 10:59:12;;;;;;;10.50;9.07;;;5.60;94.50;;;;;;5091293;28;20636;-48
2021/01/08 11:01:40;;;;;;;11.53;8.27;;;5.70;94.80;;;;;;5091503;28;20656;-50
2021/01/08 11:04:07;;;;;;;13.07;8.20;;;5.70;94.80;;;;;;5090900;28;20625;-51
2021/01/08 11:06:34;;;;;;;11.23;9.10;;;5.80;94.70;;;;;;5091340;28;20767;-51
2021/01/08 11:09:02;;;;;;;11.50;8.60;;;5.80;94.50;;;;;;5091294;28;20632;-50
2021/01/08 11:11:28;;;;;;;10.17;8.77;;;5.80;94.40;;;;;;5091449;28;20709;-51
2021/01/08 11:13:55;;;;;;;11.73;10.13;;;5.80;94.30;;;;;;5085762;28;20906;-50
2021/01/08 11:16:22;;;;;;;10.40;7.67;;;5.80;94.30;;;;;;5071113;28;20661;-51
2021/01/08 11:18:49;;;;;;;9.63;5.97;;;5.80;94.40;;;;;;5071915;28;20626;-51
2021/01/08 11:21:19;;;;;;;12.93;9.17;;;5.70;94.20;;;;;;5071813;28;21289;-49
2021/01/08 11:23:46;;;;;;;10.80;9.67;;;5.70;94.30;;;;;;5071124;28;21136;-50
2021/01/08 11:26:14;;;;;;;10.20;8.07;;;5.80;94.50;;;;;;5071933;28;20711;-49
2021/01/08 11:28:41;;;;;;;12.50;9.40;;;5.80;94.40;;;;;;5091251;28;21176;-49
2021/01/08 11:31:08;;;;;;;12.00;10.63;;;5.90;94.50;;;;;;5091034;28;21192;-50
2021/01/08 11:33:34;;;;;;;10.23;8.73;;;5.90;94.40;;;;;;5072720;28;20669;-48
2021/01/08 11:36:01;;;;;;;12.83;9.93;;;5.90;94.20;;;;;;5091349;28;20652;-49
2021/01/08 11:38:28;;;;;;;16.03;8.97;;;6.00;94.30;;;;;;5090368;28;20620;-50
2021/01/08 11:40:55;;;;;;;12.37;9.83;;;6.00;94.20;;;;;;5090741;28;20661;-51
2021/01/08 11:43:22;;;;;;;12.50;10.37;;;6.10;94.10;;;;;;5090736;28;20620;-50
2021/01/08 11:45:49;;;;;;;14.10;8.57;;;6.20;94.20;;;;;;5091508;28;21246;-52
2021/01/08 11:48:16;;;;;;;14.90;10.10;;;6.20;94.20;;;;;;5083561;28;20793;-52
2021/01/08 11:50:42;;;;;;;10.40;9.30;;;6.20;94.40;;;;;;5070686;28;20630;-51
2021/01/08 11:53:09;;;;;;;11.23;9.17;;;6.20;94.20;;;;;;5088512;28;20626;-50
2021/01/08 11:55:36;;;;;;;11.20;9.17;;;6.30;94.00;;;;;;5090788;28;20634;-50
2021/01/08 11:58:03;;;;;;;11.13;9.87;;;6.30;93.90;;;;;;5084472;28;20629;-50
2021/01/08 12:00:30;;;;;;;10.07;8.57;;;6.40;93.90;;;;;;5090431;28;21024;-49
2021/01/08 12:02:57;;;;;;;9.93;9.07;;;6.40;93.80;;;;;;5090679;28;20669;-49
2021/01/08 12:05:24;;;;;;;9.70;8.80;;;6.50;93.80;;;;;;5089833;28;20674;-49
2021/01/08 12:07:51;;;;;;;9.07;7.13;;;6.50;93.70;;;;;;5072039;28;20617;-50
2021/01/08 12:10:17;;;;;;;9.53;8.60;;;6.60;93.70;;;;;;5090164;28;20617;-51
2021/01/08 12:12:47;;;;;;;10.27;9.27;;;6.60;93.70;;;;;;5090136;28;20621;-50
2021/01/08 12:15:15;;;;;;;10.23;9.17;;;6.60;93.90;;;;;;5090375;28;20645;-51
2021/01/08 12:17:43;;;;;;;11.37;9.33;;;6.70;93.70;;;;;;5089452;28;20978;-49
2021/01/08 12:20:10;;;;;;;10.53;9.30;;;6.70;93.40;;;;;;5090525;28;21013;-51
2021/01/08 12:22:37;;;;;;;9.93;8.97;;;6.70;93.30;;;;;;5089849;28;20748;-49
2021/01/08 12:25:05;;;;;;;11.03;9.23;;;6.70;93.10;;;;;;5090632;28;20630;-49
2021/01/08 12:27:32;;;;;;;11.33;10.23;;;6.70;93.10;;;;;;5089749;28;20657;-49
2021/01/08 12:29:59;;;;;;;10.00;9.00;;;6.80;93.20;;;;;;5089770;28;21000;-50
2021/01/08 12:32:25;;;;;;;13.47;10.03;;;6.70;93.00;;;;;;5082185;28;20691;-48
2021/01/08 12:34:53;;;;;;;9.57;8.67;;;6.80;93.10;;;;;;5080793;28;20626;-49
2021/01/08 12:37:20;;;;;;;9.73;8.70;;;6.70;92.90;;;;;;5089755;28;20716;-50
2021/01/08 12:39:47;;;;;;;11.10;9.90;;;6.70;92.90;;;;;;5090179;28;20627;-50
2021/01/08 12:42:13;;;;;;;11.33;9.03;;;6.70;92.90;;;;;;5090133;28;20653;-50
2021/01/08 12:44:41;;;;;;;11.50;8.53;;;6.60;92.90;;;;;;5089574;28;20624;-50
2021/01/08 12:47:08;;;;;;;9.37;7.67;;;6.60;93.00;;;;;;5089963;28;20690;-51
2021/01/08 12:49:35;;;;;;;13.70;9.73;;;6.60;93.20;;;;;;5071222;28;21154;-51
2021/01/08 12:52:03;;;;;;;9.60;8.70;;;6.50;93.20;;;;;;5070444;28;20649;-50